Time;durP1;ratioP1;P1;durP2;ratioP2;P2;SDS_P1;SDS_P2;PMS_P1;PMS_P2;Temp;Humidity;BMP_temperature;BMP_pressure;BME280_temperature;BME280_humidity;BME280_pressure;Samples;Min_cycle;Max_cycle;Signal;HPM_P1;HPM_P2
2022/09/08 00:00:08;;;;;;;19.20;4.30;;;;;;;13.13;100.00;99364.34;5010477;28;20048;-78
2022/09/08 00:02:35;;;;;;;6.35;2.55;;;;;;;13.18;100.00;99368.03;5021990;28;20056;-78
2022/09/08 00:05:02;;;;;;;17.70;4.05;;;;;;;13.23;100.00;99380.00;5007646;28;20022;-78
2022/09/08 00:07:29;;;;;;;9.52;3.20;;;;;;;13.26;100.00;99374.13;5028739;28;20029;-79
2022/09/08 00:09:54;;;;;;;11.30;3.92;;;;;;;13.36;100.00;99379.84;5028738;28;20057;-78
2022/09/08 00:12:20;;;;;;;13.05;3.55;;;;;;;13.40;100.00;99373.78;4996449;28;20073;-78
2022/09/08 00:14:46;;;;;;;12.57;3.53;;;;;;;13.42;100.00;99368.16;5010118;28;20088;-78
2022/09/08 00:17:11;;;;;;;12.63;3.28;;;;;;;13.41;100.00;99369.19;5009741;28;20514;-78
2022/09/08 00:19:37;;;;;;;7.20;3.15;;;;;;;13.45;100.00;99378.50;5008983;28;20513;-78
2022/09/08 00:22:03;;;;;;;12.95;3.65;;;;;;;13.49;100.00;99374.28;5011219;28;20029;-77
2022/09/08 00:24:29;;;;;;;13.68;4.30;;;;;;;13.56;100.00;99377.72;4992963;28;20030;-78
2022/09/08 00:26:54;;;;;;;17.35;4.47;;;;;;;13.60;100.00;99376.22;5012646;28;20038;-78
2022/09/08 00:29:20;;;;;;;12.85;3.65;;;;;;;13.63;100.00;99381.16;5025961;28;20033;-78
2022/09/08 00:31:45;;;;;;;12.13;3.15;;;;;;;13.66;100.00;99384.47;5026719;28;20529;-78
2022/09/08 00:34:11;;;;;;;16.50;3.95;;;;;;;13.58;100.00;99355.91;5027634;28;20044;-78
2022/09/08 00:36:37;;;;;;;14.57;3.92;;;;;;;13.71;100.00;99379.19;5028152;28;20029;-77
2022/09/08 00:39:03;;;;;;;15.15;3.35;;;;;;;13.71;100.00;99387.28;5021947;28;20049;-78
2022/09/08 00:41:29;;;;;;;23.52;4.28;;;;;;;13.64;100.00;99376.56;5029937;28;20029;-78
2022/09/08 00:44:00;;;;;;;13.70;4.43;;;;;;;13.59;100.00;99363.75;5024104;28;20547;-78
2022/09/08 00:46:39;;;;;;;19.73;4.72;;;;;;;13.50;100.00;99365.13;5041862;28;20120;-78
2022/09/08 00:49:16;;;;;;;10.15;3.15;;;;;;;13.57;100.00;99375.84;5038400;28;20040;-78
2022/09/08 00:51:45;;;;;;;10.95;3.70;;;;;;;13.45;100.00;99373.09;5011962;28;20099;-78
2022/09/08 00:54:11;;;;;;;13.90;3.72;;;;;;;13.50;100.00;99380.53;5024605;28;20503;-78
2022/09/08 00:56:37;;;;;;;15.52;4.57;;;;;;;13.49;100.00;99376.97;5012505;28;20100;-77
2022/09/08 00:59:04;;;;;;;10.07;4.10;;;;;;;13.59;100.00;99385.34;5012148;28;20037;-78
2022/09/08 01:01:32;;;;;;;14.07;4.55;;;;;;;13.62;100.00;99379.50;5020231;28;20297;-78
2022/09/08 01:03:58;;;;;;;16.42;4.38;;;;;;;13.64;100.00;99376.56;5009163;28;20052;-78
2022/09/08 01:15:03;;;;;;;7.93;3.83;;;;;;;13.73;100.00;99385.97;5012407;28;20037;-78
2022/09/08 01:17:30;;;;;;;10.98;4.28;;;;;;;13.76;100.00;99379.31;5026116;28;20040;-79
2022/09/08 01:19:58;;;;;;;10.57;4.95;;;;;;;13.75;100.00;99375.78;5012292;28;20387;-78
2022/09/08 01:22:53;;;;;;;10.90;4.28;;;;;;;13.81;100.00;99374.03;5010319;28;20061;-80
2022/09/08 01:25:37;;;;;;;12.32;3.60;;;;;;;13.83;100.00;99377.34;5010223;28;20061;-79
2022/09/08 01:28:07;;;;;;;13.38;4.00;;;;;;;13.78;100.00;99366.38;4994701;28;20149;-78
2022/09/08 01:30:34;;;;;;;16.77;4.43;;;;;;;13.71;100.00;99365.69;5009459;28;20447;-78
2022/09/08 01:33:03;;;;;;;11.93;4.88;;;;;;;13.73;100.00;99375.19;5025009;28;20479;-78
2022/09/08 01:35:35;;;;;;;14.38;4.13;;;;;;;13.61;100.00;99363.53;5007730;28;20044;-78
2022/09/08 01:38:01;;;;;;;16.47;5.23;;;;;;;13.56;100.00;99358.00;5010917;28;20095;-78
2022/09/08 01:40:27;;;;;;;12.95;4.32;;;;;;;13.65;100.00;99386.31;4992562;28;20022;-78
2022/09/08 01:42:53;;;;;;;9.15;4.25;;;;;;;13.63;100.00;99373.06;4994039;28;20468;-78
2022/09/08 01:45:18;;;;;;;12.90;4.85;;;;;;;13.62;100.00;99378.69;5007019;28;20368;-79
2022/09/08 01:47:44;;;;;;;12.15;4.50;;;;;;;13.58;100.00;99380.19;5029084;28;20459;-78
2022/09/08 01:50:10;;;;;;;14.45;4.57;;;;;;;13.62;100.00;99382.19;4989904;28;20514;-78
2022/09/08 01:52:36;;;;;;;13.80;4.97;;;;;;;13.57;100.00;99373.94;5027612;28;20033;-78
2022/09/08 01:55:02;;;;;;;19.48;4.78;;;;;;;13.51;100.00;99379.47;5022033;28;20551;-78
2022/09/08 01:57:28;;;;;;;13.05;4.18;;;;;;;13.49;100.00;99379.69;5028112;28;20136;-78
2022/09/08 01:59:54;;;;;;;12.00;4.10;;;;;;;13.44;100.00;99384.13;4992932;28;20136;-77
2022/09/08 02:02:20;;;;;;;18.63;5.43;;;;;;;13.38;100.00;99385.84;5009369;28;20359;-78
2022/09/08 02:04:45;;;;;;;13.88;5.07;;;;;;;13.25;100.00;99370.63;4991705;28;20471;-78
2022/09/08 02:07:12;;;;;;;20.13;5.18;;;;;;;13.31;100.00;99388.66;5011207;28;20033;-78
2022/09/08 02:09:37;;;;;;;12.27;4.40;;;;;;;13.28;100.00;99388.25;5025151;28;20049;-78
2022/09/08 02:12:04;;;;;;;15.45;4.78;;;;;;;13.30;100.00;99384.28;5004826;28;20041;-78
2022/09/08 02:14:29;;;;;;;14.27;5.75;;;;;;;13.29;100.00;99390.75;4991321;28;20037;-78
2022/09/08 02:16:55;;;;;;;17.00;5.20;;;;;;;13.33;100.00;99391.13;5027253;28;20075;-77
2022/09/08 02:19:21;;;;;;;22.88;6.45;;;;;;;13.31;100.00;99385.97;4993935;28;20415;-78
2022/09/08 02:21:46;;;;;;;19.25;5.50;;;;;;;13.38;100.00;99388.56;5023547;28;20040;-78
2022/09/08 02:24:12;;;;;;;15.55;4.63;;;;;;;13.35;100.00;99391.72;5010290;28;20087;-78
2022/09/08 02:26:39;;;;;;;14.02;5.15;;;;;;;13.40;100.00;99389.97;5011498;28;20037;-78
2022/09/08 02:29:08;;;;;;;30.88;5.85;;;;;;;13.40;100.00;99394.56;5026048;28;20053;-79
2022/09/08 02:31:33;;;;;;;19.02;5.72;;;;;;;13.43;100.00;99390.59;5027075;28;20030;-78
2022/09/08 02:33:59;;;;;;;26.83;6.80;;;;;;;13.35;100.00;99389.84;5025633;28;20037;-78
2022/09/08 02:36:25;;;;;;;20.83;6.65;;;;;;;13.40;100.00;99402.66;5026681;28;20041;-78
2022/09/08 02:38:55;;;;;;;18.63;5.35;;;;;;;13.41;100.00;99398.91;4994127;28;20037;-79
2022/09/08 02:41:25;;;;;;;21.02;6.95;;;;;;;13.40;100.00;99397.25;5003961;28;20038;-79
2022/09/08 02:43:51;;;;;;;30.70;7.60;;;;;;;13.34;100.00;99390.09;5023876;28;20037;-79
2022/09/08 02:46:17;;;;;;;22.88;7.22;;;;;;;13.40;100.00;99399.97;5026070;28;20080;-78
2022/09/08 02:48:42;;;;;;;20.58;6.15;;;;;;;13.35;100.00;99397.94;5027023;28;20079;-79
2022/09/08 02:51:11;;;;;;;30.25;8.15;;;;;;;13.36;100.00;99399.59;5007689;28;20414;-78
2022/09/08 02:53:38;;;;;;;25.00;7.38;;;;;;;13.37;100.00;99403.13;5025174;28;20034;-78
2022/09/08 02:56:04;;;;;;;19.00;7.03;;;;;;;13.37;100.00;99408.50;5006199;28;20524;-78
2022/09/08 02:58:30;;;;;;;20.50;7.32;;;;;;;13.32;100.00;99397.56;5026106;28;20068;-78
2022/09/08 03:00:56;;;;;;;24.50;7.30;;;;;;;13.26;100.00;99398.44;5009193;28;20037;-78
2022/09/08 03:03:23;;;;;;;24.77;6.68;;;;;;;13.28;100.00;99410.69;5009861;28;20495;-79
2022/09/08 03:05:49;;;;;;;20.42;6.20;;;;;;;13.20;100.00;99398.31;5030470;28;20029;-78
2022/09/08 03:08:15;;;;;;;28.35;6.65;;;;;;;13.31;100.00;99423.75;4994805;28;20029;-79
2022/09/08 03:10:41;;;;;;;26.45;7.60;;;;;;;13.31;100.00;99412.94;5027919;28;20523;-79
2022/09/08 03:13:07;;;;;;;30.02;6.75;;;;;;;13.39;100.00;99417.22;4996236;28;20037;-79
2022/09/08 03:15:34;;;;;;;20.23;6.50;;;;;;;13.34;100.00;99409.78;5014152;28;20514;-79
2022/09/08 03:18:02;;;;;;;24.33;7.00;;;;;;;13.33;100.00;99415.41;5026271;28;20029;-78
2022/09/08 03:20:27;;;;;;;20.17;5.78;;;;;;;13.28;100.00;99421.47;5028107;28;20037;-79
2022/09/08 03:22:53;;;;;;;27.45;7.28;;;;;;;13.19;100.00;99415.53;5003085;28;20061;-79
2022/09/08 03:25:19;;;;;;;17.80;5.72;;;;;;;13.18;100.00;99419.28;4998217;28;20495;-79
2022/09/08 03:27:45;;;;;;;20.33;6.00;;;;;;;13.23;100.00;99417.78;5028257;28;20029;-79
2022/09/08 03:30:12;;;;;;;19.27;5.10;;;;;;;13.33;100.00;99429.72;5014650;28;20037;-79
2022/09/08 03:32:39;;;;;;;27.00;6.47;;;;;;;13.35;100.00;99419.53;4997288;28;20041;-78
2022/09/08 03:35:07;;;;;;;18.67;5.90;;;;;;;13.32;100.00;99416.47;4988525;28;20214;-78
2022/09/08 03:37:34;;;;;;;18.67;5.35;;;;;;;13.29;100.00;99420.44;5026647;28;20030;-79
2022/09/08 03:40:03;;;;;;;18.23;6.47;;;;;;;13.32;100.00;99424.56;5027556;28;20057;-79
2022/09/08 03:42:34;;;;;;;21.52;6.05;;;;;;;13.31;100.00;99426.44;5026891;28;20029;-80
2022/09/08 03:45:00;;;;;;;30.05;9.07;;;;;;;13.23;100.00;99423.19;5005754;28;20041;-80
2022/09/08 03:47:26;;;;;;;21.45;6.93;;;;;;;13.22;100.00;99421.53;5026886;28;20037;-80
2022/09/08 03:49:51;;;;;;;18.58;5.32;;;;;;;13.20;100.00;99416.34;5030233;28;20044;-77
2022/09/08 03:52:17;;;;;;;24.05;6.90;;;;;;;13.20;100.00;99419.91;5028629;28;20387;-77
2022/09/08 03:54:49;;;;;;;16.58;6.15;;;;;;;13.14;100.00;99419.97;5010280;28;20490;-79
2022/09/08 03:57:18;;;;;;;29.55;5.43;;;;;;;13.11;100.00;99425.81;5022869;28;20386;-80
2022/09/08 03:59:43;;;;;;;13.00;4.97;;;;;;;13.08;100.00;99419.00;5008913;28;20025;-79
2022/09/08 04:02:10;;;;;;;14.95;5.63;;;;;;;13.17;100.00;99425.72;5012107;28;20043;-79
2022/09/08 04:04:37;;;;;;;24.25;6.20;;;;;;;13.20;100.00;99419.06;4989828;28;20495;-79
2022/09/08 04:07:03;;;;;;;22.60;5.35;;;;;;;13.22;100.00;99421.53;5012667;28;20060;-78
2022/09/08 04:09:31;;;;;;;11.88;3.97;;;;;;;13.19;100.00;99423.63;4992149;28;20034;-79
2022/09/08 04:11:57;;;;;;;23.10;5.90;;;;;;;13.16;100.00;99420.56;5058962;28;20489;-79
2022/09/08 04:14:23;;;;;;;26.48;6.28;;;;;;;13.11;100.00;99431.22;5008386;28;20038;-79
2022/09/08 04:16:48;;;;;;;14.77;5.35;;;;;;;13.08;100.00;99427.09;5029399;28;20026;-79
2022/09/08 04:19:16;;;;;;;26.63;5.25;;;;;;;13.12;100.00;99433.69;4996302;28;20037;-79
2022/09/08 04:21:42;;;;;;;8.82;3.63;;;;;;;13.18;100.00;99442.78;5024053;28;20040;-79
2022/09/08 04:24:08;;;;;;;17.30;5.95;;;;;;;13.22;100.00;99438.56;5008074;28;20041;-79
2022/09/08 04:26:33;;;;;;;18.73;6.03;;;;;;;13.23;100.00;99431.28;5009689;28;20034;-79
2022/09/08 04:28:59;;;;;;;19.83;5.93;;;;;;;13.28;100.00;99443.06;5025557;28;20037;-79
2022/09/08 04:31:25;;;;;;;23.52;5.95;;;;;;;13.31;100.00;99447.19;5011714;28;20459;-78
2022/09/08 04:33:50;;;;;;;15.68;4.20;;;;;;;13.29;100.00;99449.31;5009384;28;20044;-79
2022/09/08 04:36:21;;;;;;;18.27;4.75;;;;;;;13.27;100.00;99446.00;4991681;28;20036;-78
2022/09/08 04:38:46;;;;;;;23.30;5.57;;;;;;;13.35;100.00;99457.31;5002465;28;22607;-78
2022/09/08 04:41:15;;;;;;;14.70;5.70;;;;;;;13.34;100.00;99453.00;5009360;28;20042;-79
2022/09/08 04:43:40;;;;;;;16.63;4.65;;;;;;;13.38;100.00;99462.28;5026590;28;20083;-79
2022/09/08 04:46:08;;;;;;;19.05;5.88;;;;;;;13.43;100.00;99471.59;5028267;28;20472;-78
2022/09/08 04:48:38;;;;;;;17.63;4.47;;;;;;;13.43;100.00;99466.19;4990895;28;20267;-79
2022/09/08 04:51:05;;;;;;;17.15;4.75;;;;;;;13.45;100.00;99475.72;5006908;28;20038;-79
2022/09/08 04:53:32;;;;;;;19.80;5.57;;;;;;;13.38;100.00;99473.06;4994049;28;20402;-79
2022/09/08 04:55:58;;;;;;;23.05;7.07;;;;;;;13.43;100.00;99477.81;5008567;28;20037;-78
2022/09/08 04:58:24;;;;;;;22.15;5.78;;;;;;;13.47;100.00;99472.75;5025267;28;20077;-79
2022/09/08 05:00:50;;;;;;;32.88;6.30;;;;;;;13.52;100.00;99471.06;5011339;28;20056;-77
2022/09/08 05:03:16;;;;;;;19.40;6.95;;;;;;;13.52;100.00;99467.50;4994112;28;20037;-78
2022/09/08 05:05:42;;;;;;;20.05;6.00;;;;;;;13.55;100.00;99475.19;5029043;28;20478;-78
2022/09/08 05:08:08;;;;;;;12.40;4.35;;;;;;;13.48;100.00;99475.25;5021882;28;20036;-78
2022/09/08 05:10:34;;;;;;;22.65;6.53;;;;;;;13.50;100.00;99480.44;5023340;28;20037;-78
2022/09/08 05:13:00;;;;;;;16.27;4.85;;;;;;;13.45;100.00;99474.88;4988887;28;20062;-78
2022/09/08 05:15:26;;;;;;;24.27;6.00;;;;;;;13.47;100.00;99483.56;4994710;28;20056;-78
2022/09/08 05:17:53;;;;;;;17.95;5.20;;;;;;;13.36;100.00;99466.25;4992856;28;20041;-78
2022/09/08 05:20:19;;;;;;;17.38;5.00;;;;;;;13.49;100.00;99479.59;4992986;28;20034;-78
2022/09/08 05:22:44;;;;;;;10.07;4.32;;;;;;;13.58;100.00;99493.63;4996000;28;20080;-78
2022/09/08 05:25:10;;;;;;;19.67;5.43;;;;;;;13.55;100.00;99472.47;5011879;28;20056;-79
2022/09/08 05:27:36;;;;;;;20.17;5.20;;;;;;;13.70;100.00;99490.97;4993781;28;20033;-78
2022/09/08 05:30:02;;;;;;;18.25;5.80;;;;;;;13.68;100.00;99495.78;5007039;28;20583;-79
2022/09/08 05:32:28;;;;;;;16.55;5.40;;;;;;;13.63;100.00;99493.78;5021292;28;20559;-78
2022/09/08 05:34:53;;;;;;;19.05;5.50;;;;;;;13.60;100.00;99500.47;4993877;28;20033;-78
2022/09/08 05:37:19;;;;;;;15.85;5.90;;;;;;;13.53;100.00;99491.59;5026594;28;20038;-78
2022/09/08 05:39:46;;;;;;;17.38;5.55;;;;;;;13.55;100.00;99494.91;5010792;28;20104;-78
2022/09/08 05:42:13;;;;;;;22.33;5.55;;;;;;;13.58;100.00;99497.16;4993636;28;20483;-78
2022/09/08 05:44:38;;;;;;;20.27;5.45;;;;;;;13.61;100.00;99495.88;5020877;28;20037;-78
2022/09/08 05:47:04;;;;;;;22.50;5.63;;;;;;;13.66;100.00;99501.44;5026434;28;20467;-77
2022/09/08 05:49:31;;;;;;;18.08;5.78;;;;;;;13.68;100.00;99511.97;4988573;28;20124;-77
2022/09/08 05:51:58;;;;;;;20.42;7.45;;;;;;;13.64;100.00;99507.03;5025359;28;20029;-78
2022/09/08 05:54:24;;;;;;;14.13;5.68;;;;;;;13.63;100.00;99507.28;5005763;28;20064;-77
2022/09/08 05:56:50;;;;;;;15.40;5.43;;;;;;;13.70;100.00;99526.09;5029609;28;20029;-78
2022/09/08 05:59:15;;;;;;;10.43;3.78;;;;;;;13.74;100.00;99530.00;5022476;28;20468;-78
2022/09/08 06:01:41;;;;;;;29.15;7.20;;;;;;;13.73;100.00;99528.34;5025309;28;20069;-77
2022/09/08 06:04:06;;;;;;;18.08;5.28;;;;;;;13.78;100.00;99532.00;5024361;28;20025;-79
2022/09/08 06:06:38;;;;;;;9.40;3.67;;;;;;;13.79;100.00;99530.97;5006901;28;20056;-78
2022/09/08 06:09:06;;;;;;;16.08;4.50;;;;;;;13.80;100.00;99537.19;5025286;28;20454;-78
2022/09/08 06:11:33;;;;;;;16.10;4.47;;;;;;;13.81;100.00;99534.28;5026514;28;20033;-78
2022/09/08 06:13:59;;;;;;;10.85;4.75;;;;;;;13.80;100.00;99534.50;5010589;28;20077;-78
2022/09/08 06:16:26;;;;;;;16.77;5.40;;;;;;;13.81;100.00;99538.84;5022057;28;20045;-78
2022/09/08 06:18:51;;;;;;;17.48;5.63;;;;;;;13.78;100.00;99540.13;5006838;28;20060;-77
2022/09/08 06:21:26;;;;;;;13.75;4.82;;;;;;;13.67;100.00;99529.25;5025820;28;21544;-77
2022/09/08 06:23:53;;;;;;;18.92;4.80;;;;;;;13.63;100.00;99537.81;5024188;28;20087;-77
2022/09/08 06:26:52;;;;;;;10.63;3.78;;;;;;;13.68;100.00;99547.94;5007263;28;20032;-78
2022/09/08 06:29:21;;;;;;;10.68;4.57;;;;;;;13.66;100.00;99554.63;5022822;28;20089;-77
2022/09/08 06:32:00;;;;;;;12.75;4.65;;;;;;;13.68;100.00;99555.19;5024278;28;20033;-77
2022/09/08 06:34:28;;;;;;;15.77;5.53;;;;;;;13.64;100.00;99546.72;5006066;28;20034;-78
2022/09/08 06:37:28;;;;;;;14.88;5.00;;;;;;;13.79;100.00;99560.69;5018482;28;20438;-78
2022/09/08 06:39:59;;;;;;;15.52;4.50;;;;;;;13.89;100.00;99556.63;5012597;28;20061;-77
2022/09/08 06:42:31;;;;;;;16.65;4.80;;;;;;;13.93;100.00;99561.34;4996164;28;20138;-79
2022/09/08 06:44:59;;;;;;;10.65;3.80;;;;;;;13.99;100.00;99559.63;5011192;28;20364;-77
2022/09/08 06:47:34;;;;;;;15.38;5.05;;;;;;;14.02;100.00;99568.06;5026824;28;20030;-78
2022/09/08 06:49:59;;;;;;;14.57;3.78;;;;;;;14.08;100.00;99571.78;5027294;28;20033;-78
2022/09/08 06:52:32;;;;;;;12.68;4.03;;;;;;;14.14;100.00;99561.94;5022772;28;20532;-78
2022/09/08 06:55:24;;;;;;;20.48;5.07;;;;;;;14.38;100.00;99573.66;5011332;28;20033;-78
2022/09/08 06:58:07;;;;;;;10.50;3.75;;;;;;;14.53;100.00;99579.50;5022656;28;20151;-79
2022/09/08 07:00:44;;;;;;;14.00;4.28;;;;;;;14.67;100.00;99585.53;5029486;28;20056;-78
2022/09/08 07:03:34;;;;;;;12.57;3.75;;;;;;;14.60;100.00;99563.97;5007808;28;20037;-78
2022/09/08 07:06:07;;;;;;;13.77;4.00;;;;;;;14.78;100.00;99587.44;5025165;28;20068;-77
2022/09/08 07:08:54;;;;;;;10.02;2.75;;;;;;;14.84;100.00;99578.38;5041134;28;20499;-77
2022/09/08 07:11:29;;;;;;;6.05;3.03;;;;;;;15.13;100.00;99597.50;5013413;28;20053;-77
2022/09/08 07:14:19;;;;;;;18.42;4.38;;;;;;;15.16;100.00;99600.59;5029241;28;20033;-78
2022/09/08 07:16:59;;;;;;;13.77;4.53;;;;;;;14.93;100.00;99589.72;5021655;28;20029;-77
2022/09/08 07:19:38;;;;;;;12.65;4.30;;;;;;;14.95;100.00;99607.38;5026629;28;20025;-78
2022/09/08 07:22:15;;;;;;;14.38;3.70;;;;;;;15.08;100.00;99603.63;5031767;28;20330;-77
2022/09/08 07:24:42;;;;;;;14.18;4.28;;;;;;;15.16;100.00;99603.28;5058011;28;20038;-77
2022/09/08 07:27:12;;;;;;;24.60;5.38;;;;;;;15.28;100.00;99608.69;5006866;28;20109;-78
2022/09/08 07:29:51;;;;;;;20.02;4.85;;;;;;;15.24;100.00;99612.94;5023846;28;20695;-78
2022/09/08 07:32:30;;;;;;;27.95;6.97;;;;;;;15.12;100.00;99617.53;5036885;28;20056;-79
2022/09/08 07:35:01;;;;;;;20.40;4.75;;;;;;;15.05;100.00;99620.31;5028316;28;20037;-79
2022/09/08 07:37:45;;;;;;;13.50;4.72;;;;;;;15.05;100.00;99611.38;4996901;28;20083;-79
2022/09/08 07:40:48;;;;;;;17.27;4.95;;;;;;;15.20;100.00;99627.19;5041873;28;20045;-80
2022/09/08 07:43:15;;;;;;;14.90;4.28;;;;;;;15.32;100.00;99618.00;4988018;28;20042;-79
2022/09/08 07:46:05;;;;;;;14.20;4.75;;;;;;;15.70;100.00;99622.16;5016661;28;20068;-78
2022/09/08 07:48:34;;;;;;;12.02;4.15;;;;;;;15.98;100.00;99623.28;5012931;28;20113;-85
2022/09/08 07:51:08;;;;;;;11.60;3.95;;;;;;;16.11;100.00;99627.63;5031724;28;20061;-86
2022/09/08 07:53:46;;;;;;;13.30;4.07;;;;;;;16.04;100.00;99634.00;5028560;28;20037;-85
2022/09/08 07:56:30;;;;;;;18.10;4.20;;;;;;;15.94;100.00;99644.63;5027877;28;20399;-83
2022/09/08 07:59:23;;;;;;;8.68;2.88;;;;;;;15.68;100.00;99613.41;5026438;28;20060;-86
2022/09/08 08:02:07;;;;;;;11.55;3.33;;;;;;;15.83;100.00;99643.59;4993588;28;20034;-86
2022/09/08 08:05:03;;;;;;;10.23;3.83;;;;;;;15.91;100.00;99645.09;5023764;28;20026;-86
2022/09/08 08:07:51;;;;;;;12.63;4.22;;;;;;;15.80;100.00;99629.69;5000334;28;20434;-86
2022/09/08 08:10:22;;;;;;;8.98;2.67;;;;;;;15.93;100.00;99663.84;5005732;28;20052;-85
2022/09/08 08:12:57;;;;;;;13.35;4.32;;;;;;;15.96;100.00;99664.19;5012081;28;20041;-83
2022/09/08 08:15:29;;;;;;;17.77;4.57;;;;;;;15.90;100.00;99675.16;5008779;28;20025;-81
2022/09/08 08:18:05;;;;;;;11.55;4.15;;;;;;;15.96;100.00;99674.22;4993768;28;20043;-81
2022/09/08 08:20:46;;;;;;;16.05;4.32;;;;;;;16.07;100.00;99670.66;5021047;28;20510;-81
2022/09/08 08:23:23;;;;;;;11.85;4.75;;;;;;;16.57;100.00;99672.78;5011586;28;20080;-81
2022/09/08 08:26:14;;;;;;;13.77;4.70;;;;;;;18.74;100.00;99670.38;5006114;28;20120;-84
2022/09/08 08:28:42;;;;;;;10.18;4.45;;;;;;;18.91;100.00;99670.28;5031518;28;20538;-85
2022/09/08 08:31:24;;;;;;;12.35;4.55;;;;;;;18.27;100.00;99668.19;5024008;28;20029;-84
2022/09/08 08:34:07;;;;;;;12.02;4.30;;;;;;;17.62;100.00;99675.13;5036116;28;20041;-82
2022/09/08 08:36:39;;;;;;;9.10;3.70;;;;;;;16.96;100.00;99653.13;5044988;28;20407;-84
2022/09/08 08:39:17;;;;;;;9.25;4.05;;;;;;;16.85;100.00;99688.25;5030695;28;20029;-85
2022/09/08 08:41:45;;;;;;;12.90;3.90;;;;;;;16.57;100.00;99680.09;5028786;28;20032;-83
2022/09/08 08:44:32;;;;;;;12.82;4.32;;;;;;;16.46;100.00;99692.63;5027866;28;20037;-84
2022/09/08 08:47:13;;;;;;;13.18;4.97;;;;;;;16.67;100.00;99689.25;5010676;28;20152;-83
2022/09/08 08:50:30;;;;;;;11.38;3.88;;;;;;;16.77;100.00;99680.50;5012366;28;20041;-84
2022/09/08 08:53:05;;;;;;;9.82;3.70;;;;;;;16.78;100.00;99693.03;5009883;28;20557;-84
2022/09/08 08:55:46;;;;;;;10.80;3.80;;;;;;;18.16;100.00;99695.25;5031475;28;20024;-86
2022/09/08 08:58:48;;;;;;;11.25;3.38;;;;;;;21.19;95.02;99698.34;5012854;28;20072;-84
2022/09/08 09:01:13;;;;;;;10.27;3.45;;;;;;;21.68;89.98;99695.09;5010389;28;20045;-84
2022/09/08 09:04:20;;;;;;;6.97;3.03;;;;;;;21.44;88.49;99712.06;5030970;28;20518;-84
2022/09/08 09:07:01;;;;;;;6.88;3.83;;;;;;;20.46;90.99;99718.34;5020378;28;20045;-83
2022/09/08 09:09:26;;;;;;;10.30;4.68;;;;;;;20.60;92.63;99724.16;5027585;28;20553;-84
2022/09/08 09:12:18;;;;;;;10.73;3.60;;;;;;;21.23;87.46;99715.84;5015628;28;20064;-83
2022/09/08 09:14:59;;;;;;;13.27;4.18;;;;;;;22.54;77.89;99720.63;5026212;28;20025;-84
2022/09/08 09:17:48;;;;;;;10.07;3.45;;;;;;;20.67;78.99;99723.91;5026110;28;20045;-83
2022/09/08 09:20:29;;;;;;;10.68;3.85;;;;;;;19.09;90.07;99727.97;5023764;28;20511;-83
2022/09/08 09:23:04;;;;;;;11.07;3.38;;;;;;;18.60;96.12;99744.28;5026447;28;20112;-81
2022/09/08 09:25:37;;;;;;;11.30;3.05;;;;;;;18.50;97.53;99740.59;5026454;28;20585;-83
2022/09/08 09:28:03;;;;;;;6.38;2.97;;;;;;;18.51;98.15;99742.25;5011172;28;20036;-83
2022/09/08 09:31:03;;;;;;;11.40;4.43;;;;;;;18.61;97.50;99745.09;5028120;28;20033;-84
2022/09/08 09:33:37;;;;;;;8.68;3.80;;;;;;;19.15;93.67;99757.97;5028117;28;20045;-87
2022/09/08 09:36:43;;;;;;;9.35;3.38;;;;;;;20.21;88.98;99758.06;5027458;28;20029;-85
2022/09/08 09:39:21;;;;;;;9.93;3.80;;;;;;;20.83;82.20;99752.94;5015056;28;20037;-84
2022/09/08 09:42:21;;;;;;;8.40;3.33;;;;;;;22.44;75.91;99757.13;5013462;28;20424;-85
2022/09/08 09:45:05;;;;;;;7.80;2.65;;;;;;;21.65;78.39;99764.03;5018922;28;20041;-85
2022/09/08 09:47:40;;;;;;;8.65;2.67;;;;;;;20.84;81.49;99768.22;5029707;28;20065;-85
2022/09/08 09:50:25;;;;;;;14.38;3.22;;;;;;;20.44;82.25;99769.66;5027440;28;20029;-85
2022/09/08 09:52:53;;;;;;;14.10;4.55;;;;;;;20.59;79.11;99775.22;5027648;28;20099;-85
2022/09/08 09:55:27;;;;;;;9.38;3.28;;;;;;;20.61;82.12;99764.88;5028391;28;20029;-83
2022/09/08 09:58:34;;;;;;;12.95;3.47;;;;;;;20.53;79.49;99776.25;5024646;28;20040;-86
2022/09/08 10:01:15;;;;;;;13.07;4.38;;;;;;;19.93;81.55;99769.34;4989041;28;20084;-85
2022/09/08 10:03:58;;;;;;;9.32;3.50;;;;;;;19.37;86.34;99772.41;5009312;28;20034;-84
2022/09/08 10:06:48;;;;;;;9.88;3.53;;;;;;;19.03;88.51;99779.94;4990754;28;20137;-87
2022/09/08 10:09:47;;;;;;;9.63;3.92;;;;;;;18.71;92.23;99779.78;5029051;28;20112;-85
2022/09/08 10:12:48;;;;;;;12.07;3.65;;;;;;;19.42;86.44;99782.50;5029339;28;20026;-86
2022/09/08 10:15:38;;;;;;;12.15;4.38;;;;;;;20.79;79.60;99782.69;5029873;28;20054;-86
2022/09/08 10:18:36;;;;;;;13.80;3.70;;;;;;;21.96;73.31;99789.47;5027341;28;20049;-85
2022/09/08 10:21:08;;;;;;;13.90;4.57;;;;;;;24.89;60.49;99783.78;5028970;28;20044;-84
2022/09/08 10:23:46;;;;;;;15.32;4.03;;;;;;;26.04;58.01;99777.97;5032062;28;20087;-85
2022/09/08 10:26:25;;;;;;;17.40;4.72;;;;;;;24.71;58.95;99785.34;5030874;28;20157;-81
2022/09/08 10:29:17;;;;;;;9.65;3.20;;;;;;;23.53;63.24;99785.63;5010399;28;20018;-85
2022/09/08 10:32:03;;;;;;;11.82;3.70;;;;;;;22.57;66.88;99780.31;5027509;28;20579;-85
2022/09/08 10:35:03;;;;;;;15.00;3.75;;;;;;;22.46;68.17;99792.41;4992645;28;20040;-86
2022/09/08 10:37:50;;;;;;;9.48;3.92;;;;;;;22.78;63.99;99784.66;5030343;28;20120;-87
2022/09/08 10:40:18;;;;;;;7.78;3.40;;;;;;;22.28;65.93;99786.47;5008904;28;20030;-85
2022/09/08 10:42:54;;;;;;;12.70;4.68;;;;;;;21.89;65.25;99775.25;5013641;28;20115;-85
2022/09/08 10:45:21;;;;;;;9.80;3.53;;;;;;;23.32;60.36;99809.63;5013964;28;20443;-84
2022/09/08 10:47:59;;;;;;;9.45;3.85;;;;;;;22.11;63.28;99769.47;5015644;28;20037;-85
2022/09/08 10:50:32;;;;;;;13.82;4.75;;;;;;;21.98;63.57;99805.63;5020918;28;20088;-84
2022/09/08 10:53:09;;;;;;;8.50;3.60;;;;;;;21.63;65.79;99804.53;5038153;28;20033;-84
2022/09/08 10:55:41;;;;;;;10.65;3.92;;;;;;;21.42;66.74;99795.47;5019318;28;20072;-84
2022/09/08 10:58:22;;;;;;;10.80;3.78;;;;;;;21.58;66.36;99802.59;5027647;28;20033;-85
2022/09/08 11:01:04;;;;;;;9.07;2.83;;;;;;;21.65;64.59;99794.94;5028662;28;20084;-84
2022/09/08 11:03:32;;;;;;;9.00;3.65;;;;;;;21.32;64.52;99807.16;5014233;28;20127;-85
2022/09/08 11:06:07;;;;;;;10.13;2.92;;;;;;;21.65;63.54;99785.94;5032051;28;20041;-84
2022/09/08 11:08:47;;;;;;;5.05;2.65;;;;;;;21.75;64.25;99802.31;5013580;28;20491;-85
2022/09/08 11:11:25;;;;;;;14.45;4.07;;;;;;;22.03;62.95;99811.91;5015243;28;20041;-84
2022/09/08 11:14:04;;;;;;;12.48;3.83;;;;;;;22.00;61.58;99803.44;5015015;28;20033;-85
2022/09/08 11:16:45;;;;;;;8.57;3.92;;;;;;;24.01;57.61;99805.84;5013831;28;20038;-84
2022/09/08 11:19:37;;;;;;;12.07;3.47;;;;;;;27.12;47.93;99813.31;5011132;28;20391;-84
2022/09/08 11:22:02;;;;;;;5.80;3.08;;;;;;;27.65;47.01;99811.06;5025566;28;20409;-84
2022/09/08 11:25:12;;;;;;;7.65;3.38;;;;;;;26.94;46.70;99823.38;5023713;28;20030;-84
2022/09/08 11:27:47;;;;;;;9.98;3.55;;;;;;;24.69;52.08;99815.91;5028099;28;20041;-84
2022/09/08 11:30:23;;;;;;;10.13;3.53;;;;;;;24.93;53.35;99832.38;5012140;28;20045;-83
2022/09/08 11:33:16;;;;;;;9.23;3.20;;;;;;;28.18;44.86;99827.72;4989510;28;20053;-83
2022/09/08 11:36:17;;;;;;;14.00;3.60;;;;;;;29.86;39.83;99820.38;5029813;28;20520;-83
2022/09/08 11:39:12;;;;;;;11.70;3.78;;;;;;;27.80;42.13;99818.97;5021354;28;20091;-84
2022/09/08 11:42:06;;;;;;;8.20;3.45;;;;;;;29.61;39.30;99833.88;5012744;28;20137;-85
2022/09/08 11:44:57;;;;;;;5.15;3.15;;;;;;;28.39;41.81;99819.69;5027468;28;20116;-83
2022/09/08 11:48:00;;;;;;;8.43;4.15;;;;;;;29.85;38.35;99836.22;5026334;28;20117;-85
2022/09/08 11:50:50;;;;;;;9.80;3.90;;;;;;;29.31;39.65;99830.94;5028443;28;20502;-84
2022/09/08 11:53:28;;;;;;;5.07;3.03;;;;;;;30.35;38.19;99843.97;5027662;28;20033;-85
2022/09/08 11:56:21;;;;;;;10.45;3.67;;;;;;;28.14;41.38;99825.91;5030242;28;20033;-84